createdAt,value
2022-08-08T00:02:04.007Z,3.20
2022-08-08T00:04:49.493Z,3.70
2022-08-08T00:07:31.176Z,3.30
2022-08-08T00:10:13.085Z,3.80
2022-08-08T00:12:56.393Z,3.60
2022-08-08T00:15:56.933Z,3.50
2022-08-08T00:18:36.237Z,3.30
2022-08-08T00:21:12.402Z,3.50
2022-08-08T00:23:54.813Z,3.50
2022-08-08T00:26:32.144Z,3.50
2022-08-08T00:29:12.221Z,3.90
2022-08-08T00:32:14.953Z,3.30
2022-08-08T00:35:18.375Z,3.60
2022-08-08T00:38:17.025Z,3.40
2022-08-08T00:41:54.587Z,4.70
2022-08-08T00:44:51.627Z,3.90
2022-08-08T00:48:05.350Z,3.30
2022-08-08T00:51:38.824Z,3.90
2022-08-08T00:54:37.368Z,3.80
2022-08-08T00:57:36.247Z,4.00
2022-08-08T01:00:16.211Z,3.20
2022-08-08T01:04:01.089Z,3.20
2022-08-08T01:06:42.177Z,3.40
2022-08-08T01:09:41.377Z,3.20
2022-08-08T01:12:55.901Z,3.70
2022-08-08T01:16:02.899Z,3.30
2022-08-08T01:19:13.551Z,4.50
2022-08-08T01:22:15.665Z,3.60
2022-08-08T01:25:26.281Z,4.10
2022-08-08T01:28:45.000Z,3.90
2022-08-08T01:32:14.761Z,4.70
2022-08-08T01:35:17.879Z,3.50
2022-08-08T01:38:28.493Z,4.30
2022-08-08T01:41:09.858Z,5.10
2022-08-08T01:43:53.430Z,5.00
2022-08-08T01:46:53.948Z,4.50
2022-08-08T01:49:45.113Z,4.90
2022-08-08T01:53:05.068Z,4.60
2022-08-08T01:56:29.847Z,4.80
2022-08-08T02:01:55.016Z,4.00
2022-08-08T02:04:38.184Z,4.00
2022-08-08T02:07:25.480Z,5.00
2022-08-08T02:12:56.126Z,3.80
2022-08-08T02:15:38.644Z,4.60
2022-08-08T02:18:18.424Z,4.80
2022-08-08T02:21:13.363Z,3.80
2022-08-08T02:23:56.740Z,4.00
2022-08-08T02:26:40.089Z,4.50
2022-08-08T02:29:31.445Z,3.80
2022-08-08T02:32:40.085Z,4.90
2022-08-08T02:36:05.191Z,4.80
2022-08-08T02:38:50.507Z,4.80
2022-08-08T02:42:03.584Z,4.30
2022-08-08T02:45:18.848Z,4.60
2022-08-08T02:48:27.342Z,4.10
2022-08-08T02:51:46.697Z,4.30
2022-08-08T02:55:02.222Z,3.90
2022-08-08T02:58:02.814Z,4.40
2022-08-08T03:00:58.691Z,4.90
2022-08-08T03:05:04.163Z,4.30
2022-08-08T03:07:57.669Z,5.00
2022-08-08T03:11:13.778Z,4.70
2022-08-08T03:16:00.418Z,4.30
2022-08-08T03:17:40.586Z,4.50
2022-08-08T03:20:11.635Z,4.80
2022-08-08T03:22:56.489Z,4.80
2022-08-08T03:25:35.931Z,4.40
2022-08-08T03:28:18.984Z,4.80
2022-08-08T03:31:22.578Z,4.80
2022-08-08T03:33:55.160Z,4.80
2022-08-08T03:36:33.212Z,5.10
2022-08-08T03:39:15.198Z,4.70
2022-08-08T03:42:26.323Z,5.70
2022-08-08T03:44:44.901Z,5.80
2022-08-08T03:47:25.066Z,4.50
2022-08-08T03:50:01.822Z,5.10
2022-08-08T03:52:45.213Z,4.90
2022-08-08T03:55:56.511Z,5.00
2022-08-08T03:58:34.655Z,4.90
2022-08-08T04:01:25.954Z,5.60
2022-08-08T04:04:02.330Z,4.50
2022-08-08T04:06:42.545Z,4.60
2022-08-08T04:12:00.535Z,4.80
2022-08-08T04:14:58.756Z,5.00
2022-08-08T04:17:58.077Z,5.80
2022-08-08T04:20:28.778Z,5.70
2022-08-08T04:23:03.699Z,5.40
2022-08-08T04:25:40.096Z,5.20
2022-08-08T04:28:36.697Z,5.90
2022-08-08T04:31:06.354Z,4.90
2022-08-08T04:33:42.014Z,5.60
2022-08-08T04:36:14.557Z,6.00
2022-08-08T04:38:47.390Z,5.40
2022-08-08T04:41:21.701Z,6.30
2022-08-08T04:43:57.326Z,5.40
2022-08-08T04:46:31.092Z,5.10
2022-08-08T04:49:03.420Z,5.30
2022-08-08T04:51:55.059Z,4.30
2022-08-08T04:54:41.772Z,4.60
2022-08-08T04:57:14.856Z,5.70
2022-08-08T04:59:47.933Z,5.50
2022-08-08T05:02:28.396Z,5.20
2022-08-08T05:05:01.363Z,5.40
2022-08-08T05:07:37.884Z,5.00
2022-08-08T05:10:15.370Z,5.80
2022-08-08T05:13:01.634Z,5.40
2022-08-08T05:16:54.652Z,5.00
2022-08-08T05:18:27.994Z,5.20
2022-08-08T05:21:00.236Z,5.50
2022-08-08T05:23:41.234Z,5.80
2022-08-08T05:26:19.838Z,5.50
2022-08-08T05:28:57.547Z,5.50
2022-08-08T05:32:04.381Z,5.10
2022-08-08T05:34:41.397Z,6.30
2022-08-08T05:37:19.045Z,5.50
2022-08-08T05:39:55.592Z,5.20
2022-08-08T05:42:41.986Z,6.30
2022-08-08T05:45:30.627Z,5.70
2022-08-08T05:48:09.720Z,5.50
2022-08-08T05:50:42.960Z,5.70
2022-08-08T05:54:24.402Z,5.10
2022-08-08T05:56:21.102Z,5.60
2022-08-08T05:59:04.120Z,5.30
2022-08-08T06:01:56.294Z,5.10
2022-08-08T06:04:33.212Z,5.60
2022-08-08T06:07:11.153Z,4.70
2022-08-08T06:10:01.282Z,4.80
2022-08-08T06:12:36.512Z,5.20
2022-08-08T06:15:13.247Z,4.30
2022-08-08T06:18:20.409Z,4.80
2022-08-08T06:20:43.604Z,4.30
2022-08-08T06:23:16.282Z,4.30
2022-08-08T06:26:38.518Z,5.40
2022-08-08T06:29:02.247Z,4.40
2022-08-08T06:31:52.855Z,3.70
2022-08-08T06:34:36.786Z,4.30
2022-08-08T06:37:37.065Z,6.30
2022-08-08T06:40:10.453Z,4.40
2022-08-08T06:42:55.222Z,4.40
2022-08-08T06:45:30.371Z,4.60
2022-08-08T06:48:04.489Z,4.40
2022-08-08T06:50:40.027Z,4.10
2022-08-08T06:53:17.176Z,3.60
2022-08-08T06:56:02.204Z,3.80
2022-08-08T06:58:39.945Z,6.10
2022-08-08T07:02:18.142Z,5.70
2022-08-08T07:04:39.478Z,5.50
2022-08-08T07:07:13.906Z,4.90
2022-08-08T07:09:59.815Z,6.30
2022-08-08T07:12:42.980Z,5.40
2022-08-08T07:15:31.798Z,4.20
2022-08-08T07:18:36.725Z,4.60
2022-08-08T07:21:18.638Z,4.60
2022-08-08T07:24:03.013Z,4.70
2022-08-08T07:26:50.867Z,3.80
2022-08-08T07:29:59.030Z,4.40
2022-08-08T07:32:22.273Z,3.80
2022-08-08T07:35:02.825Z,3.90
2022-08-08T07:38:04.695Z,3.40
2022-08-08T07:40:47.213Z,3.60
2022-08-08T07:43:23.139Z,4.90
2022-08-08T07:46:24.125Z,3.40
2022-08-08T07:49:02.014Z,4.40
2022-08-08T07:51:44.931Z,3.40
2022-08-08T07:54:33.192Z,3.20
2022-08-08T07:57:20.043Z,3.40
2022-08-08T08:00:04.712Z,3.70
2022-08-08T08:02:49.681Z,4.40
2022-08-08T08:05:33.519Z,3.40
2022-08-08T08:08:14.222Z,3.90
2022-08-08T08:10:50.989Z,3.30
2022-08-08T08:13:42.579Z,3.00
2022-08-08T08:16:32.161Z,3.90
2022-08-08T08:19:08.231Z,5.50
2022-08-08T08:21:56.879Z,4.10
2022-08-08T08:24:43.081Z,3.50
2022-08-08T08:27:19.889Z,3.40
2022-08-08T08:29:53.339Z,2.80
2022-08-08T08:32:35.969Z,3.20
2022-08-08T08:35:15.117Z,4.90
2022-08-08T08:38:13.242Z,3.50
2022-08-08T08:40:41.240Z,2.90
2022-08-08T08:43:17.109Z,4.30
2022-08-08T08:45:57.113Z,3.20
2022-08-08T08:48:30.321Z,2.70
2022-08-08T08:51:05.424Z,3.00
2022-08-08T08:53:56.073Z,2.10
2022-08-08T08:56:36.069Z,3.00
2022-08-08T08:59:15.344Z,3.20
2022-08-08T09:01:59.516Z,2.60
2022-08-08T09:04:44.412Z,2.50
2022-08-08T09:07:39.555Z,2.60
2022-08-08T09:10:18.129Z,2.30
2022-08-08T09:12:52.553Z,2.00
2022-08-08T09:15:41.073Z,2.90
2022-08-08T09:18:18.141Z,2.70
2022-08-08T09:21:56.002Z,2.90
2022-08-08T09:23:46.056Z,2.70
2022-08-08T09:26:32.275Z,2.60
2022-08-08T09:29:09.411Z,3.20
2022-08-08T09:31:56.694Z,2.70
2022-08-08T09:34:37.721Z,2.80
2022-08-08T09:37:57.906Z,2.20
2022-08-08T09:40:12.189Z,2.20
2022-08-08T09:42:51.610Z,2.30
2022-08-08T09:46:00.940Z,2.90
2022-08-08T09:48:28.978Z,2.10
2022-08-08T09:51:09.378Z,1.90
2022-08-08T09:53:59.659Z,2.70
2022-08-08T09:56:44.542Z,4.00
2022-08-08T10:00:02.318Z,2.50
2022-08-08T10:02:24.772Z,2.80
2022-08-08T10:05:14.768Z,2.40
2022-08-08T10:08:01.138Z,2.50
2022-08-08T10:10:36.749Z,2.40
2022-08-08T10:13:25.948Z,3.00
2022-08-08T10:16:05.187Z,3.20
2022-08-08T10:18:39.685Z,2.40
2022-08-08T10:21:22.668Z,2.30
2022-08-08T10:24:11.883Z,3.00
2022-08-08T10:27:02.633Z,2.30
2022-08-08T10:29:58.142Z,2.30
2022-08-08T10:32:48.655Z,3.00
2022-08-08T10:36:08.258Z,2.50
2022-08-08T10:38:18.535Z,2.50
2022-08-08T10:40:55.067Z,2.20
2022-08-08T10:43:38.169Z,2.60
2022-08-08T10:46:29.393Z,3.70
2022-08-08T10:49:02.703Z,2.30
2022-08-08T10:51:40.969Z,2.30
2022-08-08T10:54:28.387Z,2.10
2022-08-08T10:57:03.954Z,3.60
2022-08-08T10:59:39.366Z,3.30
2022-08-08T11:02:14.100Z,2.40
2022-08-08T11:04:53.423Z,2.40
2022-08-08T11:08:29.931Z,2.60
2022-08-08T11:10:28.516Z,3.10
2022-08-08T11:13:27.713Z,2.40
2022-08-08T11:18:40.254Z,2.40
2022-08-08T11:21:19.731Z,2.70
2022-08-08T11:24:01.673Z,2.40
2022-08-08T11:26:56.501Z,2.40
2022-08-08T11:29:51.367Z,2.40
2022-08-08T11:32:29.501Z,2.60
2022-08-08T11:35:23.176Z,2.00
2022-08-08T11:38:39.602Z,2.40
2022-08-08T11:40:52.513Z,2.90
2022-08-08T11:43:38.516Z,3.70
2022-08-08T11:46:13.766Z,2.60
2022-08-08T11:48:51.526Z,2.40
2022-08-08T11:51:30.634Z,2.60
2022-08-08T11:54:31.185Z,2.70
2022-08-08T11:57:17.347Z,2.30
2022-08-08T12:00:02.870Z,2.50
2022-08-08T12:02:54.468Z,2.60
2022-08-08T12:05:36.877Z,2.50
2022-08-08T12:08:10.282Z,2.30
2022-08-08T12:10:51.239Z,2.40
2022-08-08T12:13:37.934Z,2.40
2022-08-08T12:16:31.671Z,2.30
2022-08-08T12:19:13.654Z,2.30
2022-08-08T12:22:00.369Z,2.30
2022-08-08T12:24:54.107Z,2.40
2022-08-08T12:27:45.089Z,2.00
2022-08-08T12:30:21.620Z,2.70
2022-08-08T12:32:59.975Z,2.30
2022-08-08T12:35:41.353Z,2.70
2022-08-08T12:38:31.278Z,2.40
2022-08-08T12:41:18.324Z,2.30
2022-08-08T12:46:42.391Z,3.40
2022-08-08T12:49:43.101Z,2.60
2022-08-08T12:52:28.967Z,2.30
2022-08-08T12:55:14.316Z,3.20
2022-08-08T12:57:56.097Z,2.60
2022-08-08T13:00:34.156Z,2.20
2022-08-08T13:03:11.036Z,2.50
2022-08-08T13:06:05.634Z,2.90
2022-08-08T13:08:53.262Z,2.80
2022-08-08T13:12:26.819Z,2.50
2022-08-08T13:14:39.206Z,2.80
2022-08-08T13:18:07.607Z,2.90
2022-08-08T13:20:21.757Z,2.30
2022-08-08T13:23:08.111Z,3.40
2022-08-08T13:25:50.079Z,2.60
2022-08-08T13:28:34.385Z,2.70
2022-08-08T13:31:12.009Z,3.10
2022-08-08T13:33:50.469Z,3.40
2022-08-08T13:36:25.937Z,2.50
2022-08-08T13:38:59.314Z,2.60
2022-08-08T13:41:38.876Z,2.60
2022-08-08T13:44:12.417Z,2.30
2022-08-08T13:46:56.249Z,2.80
2022-08-08T13:50:35.590Z,2.80
2022-08-08T13:52:37.523Z,2.50
2022-08-08T13:55:10.859Z,2.40
2022-08-08T13:58:07.020Z,2.20
2022-08-08T14:00:45.056Z,2.30
2022-08-08T14:03:53.366Z,2.50
2022-08-08T14:06:33.989Z,3.10
2022-08-08T14:09:24.797Z,2.30
2022-08-08T14:12:05.479Z,2.40
2022-08-08T14:14:45.104Z,2.50
2022-08-08T14:17:22.630Z,2.60
2022-08-08T14:20:15.502Z,2.70
2022-08-08T14:23:21.451Z,2.60
2022-08-08T14:26:11.105Z,2.70
2022-08-08T14:28:53.245Z,2.60
2022-08-08T14:32:06.207Z,2.70
2022-08-08T14:34:19.466Z,2.80
2022-08-08T14:36:55.414Z,2.80
2022-08-08T14:39:48.793Z,2.30
2022-08-08T14:42:31.092Z,2.90
2022-08-08T14:45:10.136Z,2.50
2022-08-08T14:47:52.422Z,3.30
2022-08-08T14:50:38.670Z,2.60
2022-08-08T14:53:15.265Z,3.30
2022-08-08T14:55:47.146Z,2.50
2022-08-08T14:58:33.701Z,2.80
2022-08-08T15:01:07.387Z,2.70
2022-08-08T15:04:08.470Z,2.20
2022-08-08T15:06:42.531Z,2.20
2022-08-08T15:09:18.152Z,2.90
2022-08-08T15:11:52.979Z,2.70
2022-08-08T15:14:26.787Z,2.20
2022-08-08T15:16:58.647Z,2.80
2022-08-08T15:19:34.801Z,3.50
2022-08-08T15:22:06.565Z,3.10
2022-08-08T15:24:38.540Z,3.10
2022-08-08T15:27:20.142Z,2.40
2022-08-08T15:30:03.138Z,2.70
2022-08-08T15:32:36.800Z,2.10
2022-08-08T15:35:12.067Z,3.20
2022-08-08T15:37:48.002Z,2.30
2022-08-08T15:40:19.659Z,2.50
2022-08-08T15:42:51.286Z,2.40
2022-08-08T15:45:23.193Z,2.40
2022-08-08T15:48:11.045Z,2.90
2022-08-08T15:51:06.122Z,2.60
2022-08-08T15:53:49.375Z,2.60
2022-08-08T15:56:22.864Z,4.00
2022-08-08T15:58:54.499Z,2.60
2022-08-08T16:01:40.620Z,2.80
2022-08-08T16:04:18.177Z,2.90
2022-08-08T16:06:52.975Z,2.80
2022-08-08T16:13:20.624Z,2.50
2022-08-08T16:13:27.361Z,2.60
2022-08-08T16:15:12.514Z,3.20
2022-08-08T16:18:06.583Z,3.00
2022-08-08T16:20:40.461Z,2.40
2022-08-08T16:23:14.463Z,2.80
2022-08-08T16:25:54.572Z,2.70
2022-08-08T16:28:35.128Z,3.00
2022-08-08T16:31:09.442Z,3.20
2022-08-08T16:33:41.357Z,2.60
2022-08-08T16:36:33.851Z,2.60
2022-08-08T16:39:09.641Z,4.30
2022-08-08T16:41:51.076Z,3.80
2022-08-08T16:44:28.135Z,2.80
2022-08-08T16:47:42.175Z,4.00
2022-08-08T16:50:16.720Z,7.50
2022-08-08T16:55:22.737Z,4.10
2022-08-08T16:55:55.215Z,3.60
2022-08-08T16:58:34.430Z,3.50
2022-08-08T17:01:09.207Z,3.20
2022-08-08T17:03:58.670Z,3.80
2022-08-08T17:06:39.770Z,7.70
2022-08-08T17:09:19.586Z,19.10
2022-08-08T17:12:00.700Z,8.20
2022-08-08T17:14:34.620Z,16.40
2022-08-08T17:17:23.002Z,9.60
2022-08-08T17:20:00.148Z,7.60
2022-08-08T17:22:42.330Z,17.90
2022-08-08T17:25:14.993Z,12.40
2022-08-08T17:27:49.672Z,6.10
2022-08-08T17:30:29.138Z,16.10
2022-08-08T17:34:49.089Z,8.70
2022-08-08T17:36:12.375Z,8.70
2022-08-08T17:38:45.157Z,8.80
2022-08-08T17:41:16.846Z,4.90
2022-08-08T17:44:00.752Z,5.60
2022-08-08T17:46:40.272Z,4.80
2022-08-08T17:49:16.508Z,2.90
2022-08-08T17:51:56.484Z,4.50
2022-08-08T17:59:36.063Z,6.90
2022-08-08T18:02:16.124Z,3.10
2022-08-08T18:04:51.245Z,3.10
2022-08-08T18:08:03.330Z,5.40
2022-08-08T18:10:15.505Z,6.30
2022-08-08T18:15:19.484Z,3.00
2022-08-08T18:18:05.264Z,6.70
2022-08-08T18:20:59.731Z,5.20
2022-08-08T18:23:31.817Z,5.50
2022-08-08T18:26:04.190Z,5.70
2022-08-08T18:28:54.284Z,7.20
2022-08-08T18:31:27.841Z,5.90
2022-08-08T18:34:25.685Z,5.80
2022-08-08T18:36:52.406Z,6.10
2022-08-08T18:39:28.233Z,6.00
2022-08-08T18:42:03.039Z,5.50
2022-08-08T18:44:36.707Z,5.50
2022-08-08T18:47:09.177Z,5.00
2022-08-08T18:49:58.454Z,4.70
2022-08-08T18:52:34.806Z,3.60
2022-08-08T18:55:11.599Z,4.30
2022-08-08T18:57:45.871Z,3.70
2022-08-08T19:00:21.450Z,5.40
2022-08-08T19:03:04.171Z,5.00
2022-08-08T19:05:46.480Z,5.40
2022-08-08T19:08:24.732Z,5.70
2022-08-08T19:11:02.285Z,5.50
2022-08-08T19:13:52.949Z,4.90
2022-08-08T19:16:32.176Z,3.50
2022-08-08T19:19:09.870Z,4.40
2022-08-08T19:21:48.839Z,4.80
2022-08-08T19:24:42.148Z,3.80
2022-08-08T19:27:14.926Z,5.50
2022-08-08T19:29:47.337Z,4.50
2022-08-08T19:32:23.200Z,4.90
2022-08-08T19:34:57.309Z,3.90
2022-08-08T19:37:43.543Z,4.30
2022-08-08T19:40:21.942Z,4.40
2022-08-08T19:43:04.607Z,4.40
2022-08-08T19:45:58.414Z,4.20
2022-08-08T19:48:33.595Z,4.00
2022-08-08T19:51:06.790Z,4.30
2022-08-08T19:53:51.883Z,3.80
2022-08-08T19:56:40.078Z,3.90
2022-08-08T19:59:13.685Z,4.60
2022-08-08T20:02:02.176Z,4.30
2022-08-08T20:04:37.525Z,3.80
2022-08-08T20:08:28.247Z,3.60
2022-08-08T20:10:03.367Z,3.90
2022-08-08T20:12:36.962Z,4.80
2022-08-08T20:15:16.275Z,3.70
2022-08-08T20:17:50.040Z,4.80
2022-08-08T20:20:25.337Z,4.30
2022-08-08T20:22:58.103Z,4.90
2022-08-08T20:25:31.501Z,3.90
2022-08-08T20:28:07.917Z,4.40
2022-08-08T20:30:55.863Z,4.10
2022-08-08T20:34:27.448Z,4.30
2022-08-08T20:36:24.916Z,4.50
2022-08-08T20:38:59.557Z,4.80
2022-08-08T20:41:33.843Z,4.90
2022-08-08T20:44:08.065Z,5.30
2022-08-08T20:46:40.963Z,5.20
2022-08-08T20:49:21.941Z,5.70
2022-08-08T20:51:53.884Z,6.30
2022-08-08T20:54:28.426Z,5.80
2022-08-08T20:57:05.798Z,5.50
2022-08-08T20:59:50.411Z,4.90
2022-08-08T21:02:26.073Z,5.60
2022-08-08T21:05:00.603Z,5.00
2022-08-08T21:08:07.827Z,5.90
2022-08-08T21:10:28.317Z,5.50
2022-08-08T21:13:01.724Z,5.90
2022-08-08T21:16:05.970Z,5.90
2022-08-08T21:18:29.234Z,7.50
2022-08-08T21:21:19.790Z,6.50
2022-08-08T21:24:19.237Z,6.60
2022-08-08T21:27:00.413Z,7.40
2022-08-08T21:30:05.581Z,7.50
2022-08-08T21:32:26.023Z,6.80
2022-08-08T21:36:17.423Z,7.30
2022-08-08T21:37:53.824Z,7.20
2022-08-08T21:40:31.504Z,6.50
2022-08-08T21:43:04.052Z,6.60
2022-08-08T21:47:59.374Z,6.20
2022-08-08T21:48:41.541Z,6.60
2022-08-08T21:54:34.917Z,6.90
2022-08-08T21:56:43.597Z,6.50
2022-08-08T21:59:20.867Z,7.00
2022-08-08T22:01:55.614Z,6.20
2022-08-08T22:04:30.183Z,7.40
2022-08-08T22:07:02.678Z,6.30
2022-08-08T22:09:37.654Z,6.30
2022-08-08T22:12:16.771Z,6.60
2022-08-08T22:14:52.433Z,7.30
2022-08-08T22:17:25.250Z,6.40
2022-08-08T22:20:10.641Z,6.80
2022-08-08T22:22:44.208Z,7.10
2022-08-08T22:25:25.847Z,6.90
2022-08-08T22:28:04.352Z,7.00
2022-08-08T22:30:53.175Z,6.80
2022-08-08T22:34:12.502Z,5.70
2022-08-08T22:36:34.236Z,6.00
2022-08-08T22:39:11.867Z,5.60
2022-08-08T22:41:54.263Z,6.40
2022-08-08T22:44:30.656Z,6.20
2022-08-08T22:47:17.785Z,6.20
2022-08-08T22:49:53.832Z,6.30
2022-08-08T22:52:33.769Z,5.60
2022-08-08T22:55:09.709Z,5.90
2022-08-08T22:57:44.152Z,5.80
2022-08-08T23:00:21.342Z,6.10
2022-08-08T23:02:54.807Z,5.40
2022-08-08T23:05:30.883Z,5.90
2022-08-08T23:08:18.024Z,6.30
2022-08-08T23:10:52.949Z,6.50
2022-08-08T23:13:28.112Z,6.20
2022-08-08T23:16:38.868Z,6.60
2022-08-08T23:19:09.018Z,5.60
2022-08-08T23:21:43.049Z,5.90
2022-08-08T23:24:22.313Z,6.50
2022-08-08T23:26:57.188Z,6.50
2022-08-08T23:29:31.208Z,5.70
2022-08-08T23:32:05.523Z,6.10
2022-08-08T23:34:39.754Z,6.00
2022-08-08T23:38:02.307Z,6.10
2022-08-08T23:40:25.986Z,6.50
2022-08-08T23:43:04.270Z,5.60
2022-08-08T23:49:00.920Z,5.90
2022-08-08T23:49:02.866Z,6.40
2022-08-08T23:51:41.857Z,6.80
2022-08-08T23:54:43.130Z,6.20
2022-08-08T23:57:25.359Z,5.70
